SCK weather

Stockton Metropolitan Airport
Stockton, California, United States

Public forecast

Using degrees Fahrenheit for public forecast. Weather courtesy of forecast.io.

METAR (pilot weather report)

Retrieved 2019/03/23 07:55 UTC (21 minutes ago):

KSCK 230755Z AUTO 09006KT 5SM RA BR OVC060 13/11 A3014 RMK AO2 SLP206 P0009 T01280111 401780056

TAF (pilot weather forecast)

Retrieved 2019/03/23 06:28 UTC (2 hours ago):

TAF KSCK 230526Z 2306/2406 36005KT P6SM -RA OVC050 FM231700 25006KT P6SM OVC050